Time;durP1;ratioP1;P1;durP2;ratioP2;P2;SDS_P1;SDS_P2;PMS_P1;PMS_P2;Temp;Humidity;BMP_temperature;BMP_pressure;BME280_temperature;BME280_humidity;BME280_pressure;Samples;Min_cycle;Max_cycle;Signal;HPM_P1;HPM_P2
2024/03/19 00:00:40;;;;;;;21.37;8.17;;;;;;;5.45;100.00;99937.78;4849233;29;20571;-76
2024/03/19 00:03:08;;;;;;;23.57;8.37;;;;;;;5.40;100.00;99934.63;4849407;29;20064;-73
2024/03/19 00:05:36;;;;;;;24.00;7.70;;;;;;;5.39;100.00;99937.41;4809973;29;20523;-73
2024/03/19 00:08:08;;;;;;;18.97;7.90;;;;;;;5.36;100.00;99938.47;4792154;29;20145;-76
2024/03/19 00:10:37;;;;;;;34.07;9.60;;;;;;;5.31;100.00;99937.97;4791711;29;20046;-74
2024/03/19 00:13:07;;;;;;;26.70;8.60;;;;;;;5.34;100.00;99940.38;4782179;29;20057;-77
2024/03/19 00:15:40;;;;;;;30.60;8.77;;;;;;;5.28;100.00;99942.63;4858108;29;20081;-77
2024/03/19 00:18:07;;;;;;;20.17;8.00;;;;;;;5.35;100.00;99941.22;4858194;29;20064;-74
2024/03/19 00:20:36;;;;;;;16.97;8.20;;;;;;;5.35;100.00;99941.22;4855465;29;20060;-77
2024/03/19 00:23:04;;;;;;;21.00;7.57;;;;;;;5.33;100.00;99943.13;4840094;29;20069;-76
2024/03/19 00:25:37;;;;;;;14.53;6.50;;;;;;;5.40;100.00;99936.47;4854396;29;20090;-73
2024/03/19 00:28:07;;;;;;;17.17;7.50;;;;;;;5.41;100.00;99938.97;4824440;29;20061;-79
2024/03/19 00:30:37;;;;;;;17.65;7.63;;;;;;;5.38;100.00;99936.56;4842701;29;20061;-78
2024/03/19 00:33:06;;;;;;;16.30;7.43;;;;;;;5.38;100.00;99935.72;4858727;29;20496;-74
2024/03/19 00:35:45;;;;;;;16.97;7.37;;;;;;;5.46;100.00;99936.78;4863525;29;20536;-73
2024/03/19 00:38:13;;;;;;;18.50;8.10;;;;;;;5.27;100.00;99931.28;4885578;29;20506;-73
2024/03/19 00:40:48;;;;;;;26.77;9.23;;;;;;;5.31;100.00;99926.59;4929103;28;20050;-73
2024/03/19 00:43:14;;;;;;;22.27;8.13;;;;;;;5.32;100.00;99931.75;4990665;28;20034;-73
2024/03/19 00:45:49;;;;;;;20.70;8.20;;;;;;;5.39;100.00;99924.22;4970237;28;20121;-72
2024/03/19 00:48:16;;;;;;;22.63;8.30;;;;;;;5.28;100.00;99924.22;4935656;29;20504;-73
2024/03/19 00:50:43;;;;;;;18.60;8.17;;;;;;;5.33;100.00;99925.56;4925035;28;20047;-74
2024/03/19 00:53:11;;;;;;;25.93;9.87;;;;;;;5.36;100.00;99930.56;4955139;28;20054;-73
2024/03/19 00:55:38;;;;;;;27.37;9.60;;;;;;;5.35;100.00;99926.25;4938775;28;20429;-73
2024/03/19 00:58:08;;;;;;;25.27;8.93;;;;;;;5.36;100.00;99925.31;4939079;28;20101;-74
2024/03/19 01:00:35;;;;;;;29.95;9.15;;;;;;;5.36;100.00;99924.47;4939246;28;20055;-74
2024/03/19 01:03:04;;;;;;;28.53;9.20;;;;;;;5.34;100.00;99927.22;4923045;28;20050;-73
2024/03/19 01:05:30;;;;;;;19.90;8.70;;;;;;;5.33;100.00;99924.69;4938369;28;20055;-73
2024/03/19 01:07:57;;;;;;;31.80;9.83;;;;;;;5.28;100.00;99922.41;4938654;28;20086;-73
2024/03/19 01:10:25;;;;;;;23.40;8.87;;;;;;;5.29;100.00;99928.53;4935278;29;20059;-73
2024/03/19 01:12:51;;;;;;;22.67;9.03;;;;;;;5.27;100.00;99930.44;4919686;29;20055;-73
2024/03/19 01:15:18;;;;;;;32.30;10.00;;;;;;;5.23;100.00;99927.19;4919787;29;20122;-74
2024/03/19 01:17:44;;;;;;;24.07;10.37;;;;;;;5.21;100.00;99922.03;4919691;29;20143;-74
2024/03/19 01:20:12;;;;;;;21.43;9.17;;;;;;;5.18;100.00;99927.53;4951242;29;20047;-75
2024/03/19 01:22:43;;;;;;;24.93;9.57;;;;;;;5.23;100.00;99924.56;4935718;29;20067;-77
2024/03/19 01:25:10;;;;;;;22.03;8.13;;;;;;;5.18;100.00;99924.09;4935593;29;20066;-74
2024/03/19 01:27:39;;;;;;;23.92;7.93;;;;;;;5.19;100.00;99923.13;4947965;28;20057;-75
2024/03/19 01:30:06;;;;;;;16.90;7.53;;;;;;;5.20;100.00;99925.66;4960863;28;20405;-74
2024/03/19 01:32:35;;;;;;;25.30;7.80;;;;;;;5.19;100.00;99928.41;4976919;28;20168;-75
2024/03/19 01:35:04;;;;;;;37.23;9.10;;;;;;;5.09;100.00;99935.31;4995177;28;20046;-75
2024/03/19 01:37:35;;;;;;;19.97;8.50;;;;;;;5.19;100.00;99938.94;4946070;28;20054;-75
2024/03/19 01:40:04;;;;;;;21.67;8.70;;;;;;;5.16;100.00;99933.91;4955338;29;20059;-75
2024/03/19 01:42:34;;;;;;;22.73;7.63;;;;;;;5.17;100.00;99932.94;4942561;28;20465;-74
2024/03/19 01:45:12;;;;;;;17.50;7.23;;;;;;;5.09;100.00;99933.53;4968049;28;20124;-71
2024/03/19 01:47:38;;;;;;;17.57;6.57;;;;;;;5.10;100.00;99937.00;4946061;28;20513;-77
2024/03/19 01:50:08;;;;;;;16.90;6.47;;;;;;;5.14;100.00;99935.78;4946563;28;20082;-73
2024/03/19 01:52:45;;;;;;;15.77;6.10;;;;;;;5.21;100.00;99934.41;4923370;29;20062;-74
2024/03/19 01:55:12;;;;;;;17.87;7.10;;;;;;;5.15;100.00;99945.41;4954935;28;20122;-74
2024/03/19 01:57:45;;;;;;;24.73;8.57;;;;;;;5.11;100.00;99950.03;4954885;29;20055;-74
2024/03/19 02:00:13;;;;;;;21.50;7.30;;;;;;;5.07;100.00;99940.69;4954745;28;20139;-74
2024/03/19 02:02:41;;;;;;;20.00;7.17;;;;;;;5.14;100.00;99941.91;4923725;29;20051;-76
2024/03/19 02:05:10;;;;;;;16.80;6.30;;;;;;;5.16;100.00;99945.28;4955000;29;20048;-74
2024/03/19 02:07:38;;;;;;;19.33;6.10;;;;;;;5.16;100.00;99936.53;4924731;29;20071;-72
2024/03/19 02:10:07;;;;;;;15.90;6.33;;;;;;;5.17;100.00;99940.81;4917191;28;20088;-73
2024/03/19 02:12:34;;;;;;;14.50;5.97;;;;;;;5.16;100.00;99947.06;4995545;28;20151;-73
2024/03/19 02:15:06;;;;;;;16.67;6.50;;;;;;;5.22;100.00;99954.50;4967674;28;20107;-74
2024/03/19 02:17:36;;;;;;;13.63;6.20;;;;;;;5.16;100.00;99950.53;4967517;28;20053;-73
2024/03/19 02:20:23;;;;;;;17.33;7.57;;;;;;;5.19;100.00;99954.72;4950444;28;20073;-74
2024/03/19 02:22:51;;;;;;;17.73;7.47;;;;;;;5.23;100.00;99945.63;5002355;28;20056;-74
2024/03/19 02:25:17;;;;;;;16.57;7.07;;;;;;;5.20;100.00;99949.34;4972217;28;20053;-74
2024/03/19 02:27:48;;;;;;;15.00;7.13;;;;;;;5.24;100.00;99948.13;5005879;28;20106;-74
2024/03/19 02:30:16;;;;;;;13.03;6.20;;;;;;;5.23;100.00;99954.38;5005443;28;20037;-70
2024/03/19 02:33:04;;;;;;;15.53;7.07;;;;;;;5.20;100.00;99938.81;5006662;28;20487;-76
2024/03/19 02:35:31;;;;;;;15.07;7.30;;;;;;;5.24;100.00;99952.59;4980793;28;20065;-79
2024/03/19 02:37:58;;;;;;;20.93;6.97;;;;;;;5.21;100.00;99947.56;4972858;28;20057;-81
2024/03/19 02:40:24;;;;;;;13.90;7.20;;;;;;;5.23;100.00;99948.25;4969205;28;20049;-82
2024/03/19 02:42:50;;;;;;;19.00;7.70;;;;;;;5.23;100.00;99946.47;5017372;28;20464;-77
2024/03/19 02:45:16;;;;;;;15.10;6.43;;;;;;;5.18;100.00;99947.78;5018212;28;20049;-76
2024/03/19 02:47:43;;;;;;;15.23;6.90;;;;;;;5.22;100.00;99938.69;5000512;28;20045;-71
2024/03/19 02:50:10;;;;;;;16.40;7.10;;;;;;;5.19;100.00;99938.94;5033031;28;20049;-77
2024/03/19 02:52:36;;;;;;;12.87;7.47;;;;;;;5.19;100.00;99945.03;4983852;28;20041;-76
2024/03/19 02:55:02;;;;;;;14.63;7.13;;;;;;;5.18;100.00;99948.59;4999448;28;20065;-77
2024/03/19 02:57:29;;;;;;;14.27;7.73;;;;;;;5.17;100.00;99954.00;4998984;28;20045;-75
2024/03/19 02:59:55;;;;;;;17.33;7.60;;;;;;;5.18;100.00;99947.78;5015861;28;20053;-75
2024/03/19 03:02:22;;;;;;;15.57;7.20;;;;;;;5.19;100.00;99952.09;5015933;28;20048;-70
2024/03/19 03:04:55;;;;;;;17.20;8.53;;;;;;;5.11;100.00;99951.81;4979421;28;20145;-71
2024/03/19 03:07:26;;;;;;;15.97;8.17;;;;;;;5.09;100.00;99951.94;4996535;28;20168;-74
2024/03/19 03:09:51;;;;;;;;;;;;;;;5.22;100.00;99959.75;5019584;28;20147;-74
2024/03/19 03:12:21;;;;;;;19.20;8.13;;;;;;;5.15;100.00;99954.13;5018488;28;19933;-78
2024/03/19 03:14:51;;;;;;;14.53;7.53;;;;;;;5.22;100.00;99954.50;5035224;28;20041;-74
2024/03/19 03:17:18;;;;;;;20.05;7.80;;;;;;;5.29;100.00;99954.88;5019764;28;20064;-73
2024/03/19 03:19:45;;;;;;;15.13;8.10;;;;;;;5.36;100.00;99956.06;4986791;28;20517;-75
2024/03/19 03:22:10;;;;;;;21.53;10.70;;;;;;;5.39;100.00;99958.47;5015661;28;20089;-74
2024/03/19 03:24:39;;;;;;;18.90;9.87;;;;;;;5.43;100.00;99965.19;4998846;28;20213;-74
2024/03/19 03:27:05;;;;;;;21.43;9.97;;;;;;;5.46;100.00;99967.59;4982385;28;20049;-69
2024/03/19 03:29:31;;;;;;;20.93;9.50;;;;;;;5.47;100.00;99970.09;5014429;28;20474;-68
2024/03/19 03:31:57;;;;;;;24.23;9.03;;;;;;;5.50;100.00;99966.38;4998324;28;20077;-69
2024/03/19 03:34:24;;;;;;;20.13;9.07;;;;;;;5.55;100.00;99967.69;5014622;28;20049;-69
2024/03/19 03:36:50;;;;;;;27.53;10.07;;;;;;;5.58;100.00;99966.63;5031079;28;20115;-69
2024/03/19 03:39:16;;;;;;;19.00;9.73;;;;;;;5.64;100.00;99972.28;5030924;28;20427;-68
2024/03/19 03:41:42;;;;;;;18.37;9.40;;;;;;;5.65;100.00;99979.22;5014673;28;20118;-69
2024/03/19 03:44:08;;;;;;;26.07;9.47;;;;;;;5.72;100.00;99983.03;5030894;28;20045;-69
2024/03/19 03:46:34;;;;;;;18.47;9.80;;;;;;;5.73;100.00;99978.63;5014439;28;20151;-69
2024/03/19 03:49:00;;;;;;;20.90;9.50;;;;;;;5.72;100.00;99979.59;5014333;28;20475;-78
2024/03/19 03:51:27;;;;;;;16.43;9.03;;;;;;;5.74;100.00;99994.31;4981964;28;20507;-70
2024/03/19 03:53:57;;;;;;;17.70;8.80;;;;;;;5.77;100.00;99985.31;5030318;28;20167;-71
2024/03/19 03:56:23;;;;;;;18.92;8.48;;;;;;;5.79;100.00;99980.78;5035222;28;20139;-68
2024/03/19 03:58:49;;;;;;;19.23;8.70;;;;;;;5.78;100.00;99995.75;5018755;28;20135;-66
2024/03/19 04:01:14;;;;;;;17.27;8.63;;;;;;;5.83;100.00;99996.25;5052146;28;20056;-68
2024/03/19 04:03:40;;;;;;;20.37;8.90;;;;;;;5.80;100.00;99988.56;5018424;28;20101;-68
2024/03/19 04:06:07;;;;;;;21.47;9.37;;;;;;;5.74;100.00;99986.41;5034959;28;20132;-71
2024/03/19 04:08:33;;;;;;;23.47;8.63;;;;;;;5.78;100.00;99995.75;5035002;28;20155;-67
2024/03/19 04:11:03;;;;;;;20.20;8.87;;;;;;;5.83;100.00;99993.63;5035905;28;20509;-68
2024/03/19 04:13:29;;;;;;;15.43;8.52;;;;;;;5.82;100.00;99991.09;5033391;28;20451;-67
2024/03/19 04:15:56;;;;;;;20.07;7.97;;;;;;;5.82;100.00;99991.09;5053234;28;20139;-69
2024/03/19 04:18:22;;;;;;;17.37;8.10;;;;;;;5.83;100.00;99995.41;5051340;28;20049;-67
2024/03/19 04:20:51;;;;;;;20.17;9.50;;;;;;;5.83;100.00;99996.25;5001277;28;20040;-67
2024/03/19 04:23:16;;;;;;;18.00;8.70;;;;;;;5.79;100.00;100000.06;5051233;28;20388;-66
2024/03/19 04:25:42;;;;;;;18.80;8.13;;;;;;;5.80;100.00;99999.09;5017125;28;20048;-69
2024/03/19 04:28:08;;;;;;;18.80;9.20;;;;;;;5.76;100.00;100010.84;5052054;28;20097;-70
2024/03/19 04:30:34;;;;;;;16.50;9.10;;;;;;;5.77;100.00;100006.41;5051689;28;20391;-70
2024/03/19 04:33:02;;;;;;;22.10;8.97;;;;;;;5.79;100.00;100007.97;5052297;28;20045;-71
2024/03/19 04:35:28;;;;;;;16.33;7.80;;;;;;;5.85;100.00;100007.53;5035625;28;20045;-73
2024/03/19 04:37:54;;;;;;;19.27;8.13;;;;;;;5.85;100.00;100007.53;5052325;28;20075;-69
2024/03/19 04:40:21;;;;;;;16.07;8.53;;;;;;;5.83;100.00;100013.84;5018726;28;20068;-68
2024/03/19 04:42:48;;;;;;;21.40;9.03;;;;;;;5.85;100.00;100012.81;5051278;28;20049;-67
2024/03/19 04:45:14;;;;;;;16.37;8.73;;;;;;;5.82;100.00;100012.19;5034671;28;20506;-68
2024/03/19 04:47:40;;;;;;;20.20;8.50;;;;;;;5.88;100.00;100019.63;5051429;28;20158;-68
2024/03/19 04:50:06;;;;;;;14.83;8.20;;;;;;;5.93;100.00;100017.47;5051328;28;20045;-68
2024/03/19 04:52:33;;;;;;;16.27;8.40;;;;;;;6.01;100.00;100021.19;5051948;28;20137;-68
2024/03/19 04:54:59;;;;;;;18.33;7.30;;;;;;;5.99;100.00;100022.25;5052119;28;20044;-68
2024/03/19 04:57:25;;;;;;;20.93;10.43;;;;;;;5.93;100.00;100020.97;5050454;28;20110;-66
2024/03/19 04:59:51;;;;;;;18.50;8.90;;;;;;;6.01;100.00;100029.09;5031727;28;20106;-66
2024/03/19 05:02:17;;;;;;;13.80;8.50;;;;;;;6.05;100.00;100025.28;5050689;28;20045;-66
2024/03/19 05:04:43;;;;;;;15.48;8.50;;;;;;;6.09;100.00;100034.59;5049351;28;20044;-66
2024/03/19 05:07:09;;;;;;;18.52;8.48;;;;;;;6.03;100.00;100040.34;5031724;28;20135;-67
2024/03/19 05:09:35;;;;;;;15.27;7.83;;;;;;;6.06;100.00;100034.84;5038355;28;20065;-66
2024/03/19 05:12:00;;;;;;;16.83;8.07;;;;;;;6.08;100.00;100040.84;5024672;28;20135;-67
2024/03/19 05:14:29;;;;;;;12.53;7.90;;;;;;;6.08;100.00;100040.84;5057728;28;20028;-68
2024/03/19 05:16:54;;;;;;;15.48;7.20;;;;;;;6.10;100.00;100046.00;5062453;28;20033;-68
2024/03/19 05:19:20;;;;;;;12.60;7.20;;;;;;;6.15;100.00;100039.41;5061099;28;20459;-68
2024/03/19 05:21:46;;;;;;;17.95;7.13;;;;;;;6.21;100.00;100036.28;5051468;28;20090;-71
2024/03/19 05:24:12;;;;;;;14.07;7.40;;;;;;;6.29;100.00;100046.22;5056249;28;20044;-67
2024/03/19 05:26:37;;;;;;;15.05;7.97;;;;;;;6.38;100.00;100041.06;5062605;28;20534;-66
2024/03/19 05:29:03;;;;;;;13.00;6.80;;;;;;;6.45;100.00;100034.34;5043481;28;20036;-66
2024/03/19 05:31:29;;;;;;;13.40;8.05;;;;;;;6.53;100.00;100047.75;5060952;28;20438;-65
2024/03/19 05:33:56;;;;;;;16.75;7.95;;;;;;;6.50;100.00;100037.44;5058759;28;20124;-65
2024/03/19 05:36:23;;;;;;;17.48;7.28;;;;;;;6.56;100.00;100042.25;5061607;28;20503;-66
2024/03/19 05:38:49;;;;;;;15.25;7.40;;;;;;;6.63;100.00;100051.34;5050039;28;20041;-66
2024/03/19 05:41:15;;;;;;;16.70;7.97;;;;;;;6.73;100.00;100043.53;5025315;28;20068;-65
2024/03/19 05:43:48;;;;;;;16.35;6.78;;;;;;;6.98;100.00;100045.00;5041833;28;20445;-65
2024/03/19 05:46:14;;;;;;;14.00;7.55;;;;;;;6.99;100.00;100038.75;5007365;28;20041;-66
2024/03/19 05:48:40;;;;;;;17.05;7.57;;;;;;;7.14;100.00;100048.91;5041920;28;20041;-66
2024/03/19 05:51:07;;;;;;;17.83;7.93;;;;;;;7.27;100.00;100052.22;5022427;28;20095;-66
2024/03/19 05:53:35;;;;;;;13.00;7.00;;;;;;;7.40;100.00;100067.88;5030300;28;20034;-66
2024/03/19 05:56:01;;;;;;;15.45;6.63;;;;;;;7.50;100.00;100061.72;5013757;28;20038;-66
2024/03/19 05:58:28;;;;;;;20.17;7.10;;;;;;;7.64;100.00;100060.56;4981310;28;20080;-66
2024/03/19 06:00:55;;;;;;;15.00;7.00;;;;;;;7.69;100.00;100061.81;5013656;28;20535;-66
2024/03/19 06:03:22;;;;;;;15.00;7.50;;;;;;;7.79;100.00;100059.25;4981346;28;20044;-66
2024/03/19 06:05:52;;;;;;;21.42;7.35;;;;;;;7.89;100.00;100060.97;5013632;28;20049;-66
2024/03/19 06:08:18;;;;;;;15.13;6.87;;;;;;;7.85;100.00;100058.72;5030749;28;20111;-66
2024/03/19 06:10:44;;;;;;;14.95;7.13;;;;;;;7.82;100.00;100056.34;4981542;28;20077;-65
2024/03/19 06:13:10;;;;;;;17.17;7.55;;;;;;;7.87;100.00;100062.09;5020812;28;20134;-65
2024/03/19 06:15:36;;;;;;;15.18;6.90;;;;;;;7.87;100.00;100064.72;5036928;28;20036;-66
2024/03/19 06:18:03;;;;;;;14.60;7.97;;;;;;;7.88;100.00;100066.41;5020468;28;20118;-65
2024/03/19 06:20:29;;;;;;;14.50;7.95;;;;;;;7.74;100.00;100075.50;5023758;28;20139;-66
2024/03/19 06:22:55;;;;;;;21.02;8.48;;;;;;;7.76;100.00;100073.56;5056988;28;20471;-66
2024/03/19 06:25:20;;;;;;;12.85;6.88;;;;;;;7.84;100.00;100083.50;5024019;28;20110;-65
2024/03/19 06:27:46;;;;;;;19.60;6.97;;;;;;;7.72;100.00;100071.31;5023812;28;20036;-66
2024/03/19 06:30:14;;;;;;;15.05;7.25;;;;;;;7.79;100.00;100083.03;5057029;28;20483;-66
2024/03/19 06:32:41;;;;;;;15.75;7.15;;;;;;;7.77;100.00;100069.09;5056980;28;20455;-66
2024/03/19 06:35:07;;;;;;;13.18;6.88;;;;;;;7.80;100.00;100076.78;5074223;28;20044;-66
2024/03/19 06:37:33;;;;;;;14.23;7.38;;;;;;;7.76;100.00;100084.16;5023737;28;20055;-66
2024/03/19 06:39:59;;;;;;;24.38;8.38;;;;;;;7.57;100.00;100084.00;5040325;28;20037;-66
2024/03/19 06:42:25;;;;;;;17.23;8.07;;;;;;;7.60;100.00;100077.63;5039792;28;20190;-67
2024/03/19 06:44:51;;;;;;;14.38;7.40;;;;;;;7.69;100.00;100087.41;5000461;28;20041;-65
2024/03/19 06:47:18;;;;;;;18.42;7.40;;;;;;;7.61;100.00;100085.41;5026511;28;20046;-69
2024/03/19 06:49:44;;;;;;;17.15;6.80;;;;;;;7.62;100.00;100080.97;5028366;28;20055;-66
2024/03/19 06:52:09;;;;;;;19.52;8.30;;;;;;;7.48;100.00;100081.28;5025166;28;20033;-66
2024/03/19 06:54:35;;;;;;;16.20;7.20;;;;;;;7.56;100.00;100092.06;5009741;28;20041;-66
2024/03/19 06:57:01;;;;;;;16.38;7.13;;;;;;;7.62;100.00;100083.63;5001318;28;20491;-66
2024/03/19 06:59:27;;;;;;;21.77;7.20;;;;;;;7.57;100.00;100091.94;5000623;28;20048;-66
2024/03/19 07:01:53;;;;;;;20.40;7.45;;;;;;;7.63;100.00;100098.50;5016511;28;20057;-67
2024/03/19 07:04:19;;;;;;;20.63;7.70;;;;;;;7.57;100.00;100081.38;5000350;28;20041;-66
2024/03/19 07:06:46;;;;;;;13.20;7.47;;;;;;;7.62;100.00;100087.13;5016397;28;20526;-67
2024/03/19 07:09:12;;;;;;;23.02;8.50;;;;;;;7.66;100.00;100092.97;5016801;28;20377;-67
2024/03/19 07:11:38;;;;;;;20.67;7.75;;;;;;;7.57;100.00;100099.03;5000468;28;20053;-66
2024/03/19 07:14:04;;;;;;;16.23;6.68;;;;;;;7.63;100.00;100103.78;5039423;28;20040;-67
2024/03/19 07:16:33;;;;;;;12.95;7.00;;;;;;;7.70;100.00;100097.03;5023546;28;20490;-67
2024/03/19 07:18:59;;;;;;;32.28;8.23;;;;;;;7.44;100.00;100101.84;5056451;28;20483;-67
2024/03/19 07:21:25;;;;;;;18.98;8.05;;;;;;;7.45;100.00;100102.69;5039241;28;20505;-67
2024/03/19 07:23:51;;;;;;;14.15;6.55;;;;;;;7.43;100.00;100099.31;5056326;28;20116;-66
2024/03/19 07:26:17;;;;;;;18.08;7.70;;;;;;;7.36;100.00;100096.38;5073528;28;20037;-67
2024/03/19 07:28:42;;;;;;;15.68;7.47;;;;;;;7.41;100.00;100103.91;5022637;28;20044;-66
2024/03/19 07:31:08;;;;;;;13.35;6.78;;;;;;;7.44;100.00;100101.03;5055248;28;20049;-67
2024/03/19 07:33:34;;;;;;;17.08;6.80;;;;;;;7.44;100.00;100098.38;5073334;28;20201;-66
2024/03/19 07:36:00;;;;;;;15.85;6.72;;;;;;;7.51;100.00;100099.53;5022449;28;20368;-67
2024/03/19 07:38:26;;;;;;;16.35;6.93;;;;;;;7.53;100.00;100100.25;5070459;28;20059;-67
2024/03/19 07:40:51;;;;;;;19.80;8.68;;;;;;;7.52;100.00;100096.75;5092881;28;20047;-67
2024/03/19 07:43:18;;;;;;;19.73;9.70;;;;;;;7.46;100.00;100089.34;5092587;28;20044;-66
2024/03/19 07:45:44;;;;;;;17.98;7.88;;;;;;;7.51;100.00;100102.19;5079961;28;20399;-67
2024/03/19 07:48:12;;;;;;;14.50;7.03;;;;;;;7.63;100.00;100101.16;5060452;28;20547;-66
2024/03/19 07:50:41;;;;;;;14.80;7.35;;;;;;;7.84;100.00;100099.38;5042653;28;20131;-66
2024/03/19 07:53:07;;;;;;;16.33;7.70;;;;;;;7.84;100.00;100104.66;5038507;28;20049;-67
2024/03/19 07:55:33;;;;;;;16.27;7.90;;;;;;;7.95;100.00;100102.75;5039188;28;20050;-67
2024/03/19 07:58:00;;;;;;;15.27;7.90;;;;;;;7.97;100.00;100100.00;5073185;28;20415;-66
2024/03/19 08:00:27;;;;;;;13.85;7.03;;;;;;;7.86;100.00;100105.34;5038276;28;20040;-67
2024/03/19 08:02:53;;;;;;;12.57;7.20;;;;;;;7.88;100.00;100106.91;5039545;28;20072;-67
2024/03/19 08:05:19;;;;;;;12.90;6.72;;;;;;;7.83;100.00;100103.81;4995353;28;20119;-67
2024/03/19 08:07:45;;;;;;;12.23;7.07;;;;;;;7.83;100.00;100109.09;5012204;28;20077;-66
2024/03/19 08:10:12;;;;;;;8.63;5.82;;;;;;;7.97;100.00;100108.78;5012422;28;20050;-67
2024/03/19 08:12:38;;;;;;;9.07;5.88;;;;;;;8.04;100.00;100114.38;5019164;28;20041;-67
2024/03/19 08:15:05;;;;;;;14.45;7.15;;;;;;;8.00;100.00;100115.59;5014860;28;20049;-67
2024/03/19 08:17:33;;;;;;;16.35;7.43;;;;;;;8.07;100.00;100119.41;5030952;28;20057;-67
2024/03/19 08:20:00;;;;;;;13.40;6.38;;;;;;;8.12;100.00;100112.75;5014303;28;20053;-67
2024/03/19 08:22:26;;;;;;;19.08;8.20;;;;;;;8.20;100.00;100120.03;5014486;28;20436;-67
2024/03/19 08:24:53;;;;;;;13.27;6.82;;;;;;;8.31;100.00;100126.13;5031517;28;20052;-67
2024/03/19 08:27:20;;;;;;;16.88;7.68;;;;;;;8.41;100.00;100120.88;5014165;28;20167;-67
2024/03/19 08:29:46;;;;;;;22.17;9.70;;;;;;;8.27;100.00;100121.22;5014324;28;20057;-66
2024/03/19 08:32:12;;;;;;;15.57;8.65;;;;;;;8.35;100.00;100118.72;5022946;28;20052;-66
2024/03/19 08:34:38;;;;;;;21.92;9.40;;;;;;;8.34;100.00;100125.00;5053656;28;20124;-66
2024/03/19 08:37:05;;;;;;;15.73;8.32;;;;;;;8.42;100.00;100126.03;5033610;28;20056;-67
2024/03/19 08:39:33;;;;;;;13.60;8.38;;;;;;;8.45;100.00;100120.47;5036820;28;20147;-67
2024/03/19 08:41:59;;;;;;;19.63;7.57;;;;;;;8.49;100.00;100118.38;5038938;28;20117;-67
2024/03/19 08:44:25;;;;;;;13.48;7.13;;;;;;;8.60;100.00;100128.88;5071342;28;20041;-66
2024/03/19 08:46:51;;;;;;;12.75;6.57;;;;;;;8.64;100.00;100121.53;5037743;28;20139;-67
2024/03/19 08:49:18;;;;;;;11.38;6.43;;;;;;;8.74;100.00;100119.72;5054480;28;20044;-67
2024/03/19 08:51:45;;;;;;;12.30;6.93;;;;;;;8.82;100.00;100131.34;5054294;28;20048;-67
2024/03/19 08:54:11;;;;;;;13.93;6.45;;;;;;;8.99;100.00;100132.50;5054847;28;20036;-67
2024/03/19 08:56:38;;;;;;;9.10;5.68;;;;;;;9.15;100.00;100131.00;5071263;28;20110;-66
2024/03/19 08:59:04;;;;;;;12.65;6.07;;;;;;;9.29;100.00;100133.25;5071233;28;20105;-66
2024/03/19 09:01:30;;;;;;;23.05;7.70;;;;;;;9.15;100.00;100138.13;5071697;28;20052;-67
2024/03/19 09:03:57;;;;;;;18.02;6.97;;;;;;;8.97;100.00;100127.34;5055447;28;20047;-66
2024/03/19 09:06:23;;;;;;;16.98;8.50;;;;;;;9.06;100.00;100123.88;5071036;28;20048;-67
2024/03/19 09:08:48;;;;;;;13.50;7.07;;;;;;;9.22;100.00;100132.13;5070879;28;20185;-67
2024/03/19 09:11:14;;;;;;;16.70;7.20;;;;;;;9.40;100.00;100130.47;5071563;28;20082;-67
2024/03/19 09:13:40;;;;;;;11.32;6.47;;;;;;;9.62;100.00;100137.31;5070678;28;20036;-67
2024/03/19 09:16:06;;;;;;;14.02;6.50;;;;;;;9.73;100.00;100129.22;5071445;28;20420;-67
2024/03/19 09:18:32;;;;;;;25.23;9.48;;;;;;;9.86;100.00;100132.41;5071578;28;20063;-67
2024/03/19 09:20:58;;;;;;;14.35;6.22;;;;;;;10.02;100.00;100138.78;5049941;28;20056;-67
2024/03/19 09:23:24;;;;;;;14.90;6.30;;;;;;;10.25;100.00;100139.34;5032879;28;20128;-67
2024/03/19 09:25:52;;;;;;;13.45;6.50;;;;;;;10.54;100.00;100136.59;5032925;28;20206;-67
2024/03/19 09:28:18;;;;;;;11.90;6.00;;;;;;;10.72;100.00;100140.16;5049174;28;20167;-67
2024/03/19 09:30:44;;;;;;;10.70;5.78;;;;;;;10.81;100.00;100132.13;5049568;28;20094;-67
2024/03/19 09:33:10;;;;;;;13.23;5.80;;;;;;;10.87;100.00;100130.72;5041769;28;20446;-67
2024/03/19 09:35:36;;;;;;;13.98;6.30;;;;;;;10.87;100.00;100133.38;5069660;28;20053;-66
2024/03/19 09:38:03;;;;;;;16.80;6.18;;;;;;;10.88;100.00;100143.88;5066179;28;20071;-67
2024/03/19 09:40:30;;;;;;;12.20;5.53;;;;;;;10.87;100.00;100149.34;5050224;28;20117;-67
2024/03/19 09:42:56;;;;;;;14.25;5.90;;;;;;;10.82;100.00;100140.97;5029759;28;20048;-67
2024/03/19 09:45:29;;;;;;;13.77;6.18;;;;;;;10.86;100.00;100142.31;5013090;28;20047;-67
2024/03/19 09:47:56;;;;;;;10.68;6.20;;;;;;;10.78;100.00;100147.56;4997083;28;20487;-67
2024/03/19 09:50:23;;;;;;;15.68;6.03;;;;;;;10.81;100.00;100139.31;4995651;28;20115;-67
2024/03/19 09:52:57;;;;;;;15.18;6.32;;;;;;;10.94;100.00;100145.94;5014235;28;20049;-68
2024/03/19 09:55:26;;;;;;;18.38;6.20;;;;;;;11.01;100.00;100146.19;4995755;28;20054;-67
2024/03/19 09:57:55;;;;;;;12.45;6.03;;;;;;;11.36;100.00;100144.41;4980224;28;20488;-67
2024/03/19 10:00:28;;;;;;;12.02;7.03;;;;;;;11.67;100.00;100142.22;4979949;28;20053;-67
2024/03/19 10:02:55;;;;;;;16.23;6.72;;;;;;;11.85;100.00;100133.25;4984799;28;20128;-66
2024/03/19 10:05:22;;;;;;;16.33;7.03;;;;;;;12.00;98.17;100136.19;5002875;28;20046;-67
2024/03/19 10:07:51;;;;;;;15.18;6.82;;;;;;;12.23;96.16;100144.50;4997425;28;20648;-67
2024/03/19 10:10:17;;;;;;;10.73;6.32;;;;;;;12.64;93.67;100144.59;5004044;28;20061;-67
2024/03/19 10:12:45;;;;;;;17.40;6.93;;;;;;;13.11;87.35;100143.19;5006203;28;20049;-67
2024/03/19 10:15:28;;;;;;;16.65;6.50;;;;;;;13.44;83.85;100139.59;5021331;28;20050;-67
2024/03/19 10:18:13;;;;;;;19.98;6.78;;;;;;;14.15;80.25;100128.25;5006919;28;20045;-70
2024/03/19 10:20:39;;;;;;;20.67;7.00;;;;;;;14.54;74.93;100137.25;5022460;28;20053;-67
2024/03/19 10:23:08;;;;;;;17.85;6.63;;;;;;;14.86;70.96;100129.13;5005234;28;20037;-69
2024/03/19 10:25:36;;;;;;;12.90;6.22;;;;;;;15.27;67.86;100133.25;4985263;28;20444;-70
2024/03/19 10:28:05;;;;;;;18.02;6.38;;;;;;;15.46;65.54;100132.84;5010136;28;20084;-69
2024/03/19 10:30:31;;;;;;;14.63;6.05;;;;;;;15.20;64.55;100134.97;5027934;28;20372;-68
2024/03/19 10:32:59;;;;;;;17.55;6.35;;;;;;;15.02;64.99;100135.22;5024703;28;20056;-69
2024/03/19 10:35:26;;;;;;;19.42;6.88;;;;;;;14.88;65.72;100127.91;5014378;28;20055;-68
2024/03/19 10:37:53;;;;;;;13.70;6.63;;;;;;;14.72;65.78;100128.00;4985577;28;20070;-68
2024/03/19 10:40:20;;;;;;;12.88;6.68;;;;;;;14.42;66.38;100131.41;4958083;28;20050;-68
2024/03/19 10:42:50;;;;;;;10.95;5.97;;;;;;;14.17;68.40;100126.25;4977012;28;20054;-69
2024/03/19 10:45:21;;;;;;;13.82;6.07;;;;;;;13.95;68.80;100133.13;4974176;28;20053;-68
2024/03/19 10:47:49;;;;;;;18.92;6.25;;;;;;;13.71;69.82;100130.47;4978655;28;20046;-69
2024/03/19 10:50:17;;;;;;;12.90;6.22;;;;;;;13.67;70.11;100130.97;4977675;28;20084;-68
2024/03/19 10:52:55;;;;;;;16.05;6.70;;;;;;;13.94;69.72;100128.78;4986146;28;20057;-69
2024/03/19 10:55:21;;;;;;;18.77;7.00;;;;;;;14.26;67.56;100125.28;4991351;28;20045;-68
2024/03/19 10:57:47;;;;;;;18.35;7.45;;;;;;;14.52;65.75;100129.41;4988079;28;20552;-69
2024/03/19 11:00:26;;;;;;;13.70;7.38;;;;;;;15.05;63.67;100126.03;4970516;28;20042;-68
2024/03/19 11:03:00;;;;;;;19.17;8.05;;;;;;;15.58;61.46;100119.88;4970769;28;20113;-69
2024/03/19 11:05:27;;;;;;;26.73;7.93;;;;;;;16.59;57.45;100114.78;4970792;28;20076;-68
2024/03/19 11:07:56;;;;;;;19.92;7.20;;;;;;;17.67;53.28;100107.63;4989630;28;20042;-69
2024/03/19 11:10:35;;;;;;;22.40;6.22;;;;;;;18.16;49.70;100124.63;4982751;28;20055;-69
2024/03/19 11:13:08;;;;;;;12.30;6.03;;;;;;;17.83;48.13;100110.91;5014699;28;20402;-68
2024/03/19 11:15:35;;;;;;;16.42;6.15;;;;;;;17.61;47.56;100122.69;5032246;28;20514;-69
2024/03/19 11:18:05;;;;;;;20.42;7.13;;;;;;;17.14;47.55;100108.06;5017109;28;20040;-70
2024/03/19 11:20:31;;;;;;;16.77;6.13;;;;;;;17.09;47.95;100108.63;5018590;28;20091;-68